createdAt,value
2022-12-11T00:01:13.536Z,35.70
2022-12-11T00:03:42.151Z,38.70
2022-12-11T00:06:14.879Z,39.60
2022-12-11T00:08:43.282Z,35.93
2022-12-11T00:11:13.931Z,38.10
2022-12-11T00:13:42.202Z,31.20
2022-12-11T00:16:11.160Z,34.37
2022-12-11T00:18:39.919Z,33.80
2022-12-11T00:21:10.406Z,35.40
2022-12-11T00:23:40.140Z,32.00
2022-12-11T00:26:10.438Z,33.53
2022-12-11T00:28:38.741Z,34.77
2022-12-11T00:31:07.831Z,39.90
2022-12-11T00:33:36.167Z,36.90
2022-12-11T00:36:05.073Z,37.30
2022-12-11T00:38:33.354Z,35.17
2022-12-11T00:41:03.001Z,39.47
2022-12-11T00:43:31.286Z,42.23
2022-12-11T00:45:59.567Z,38.17
2022-12-11T00:48:27.985Z,35.93
2022-12-11T00:50:56.298Z,40.90
2022-12-11T00:53:24.645Z,36.50
2022-12-11T00:55:52.915Z,36.17
2022-12-11T00:58:22.654Z,38.10
2022-12-11T01:00:53.426Z,39.97
2022-12-11T01:03:21.937Z,43.07
2022-12-11T01:05:54.128Z,41.00
2022-12-11T01:08:22.485Z,45.40
2022-12-11T01:10:49.881Z,43.40
2022-12-11T01:13:18.375Z,39.13
2022-12-11T01:15:48.129Z,38.27
2022-12-11T01:18:16.800Z,36.40
2022-12-11T01:20:45.138Z,35.87
2022-12-11T01:23:14.692Z,38.00
2022-12-11T01:25:43.771Z,33.73
2022-12-11T01:28:12.524Z,38.50
2022-12-11T01:30:42.674Z,38.00
2022-12-11T01:33:12.305Z,40.83
2022-12-11T01:35:41.232Z,37.63
2022-12-11T01:38:10.859Z,39.67
2022-12-11T01:40:39.385Z,42.00
2022-12-11T01:43:10.737Z,35.50
2022-12-11T01:45:45.075Z,35.13
2022-12-11T01:48:18.880Z,36.53
2022-12-11T01:50:50.622Z,36.97
2022-12-11T01:53:23.681Z,37.57
2022-12-11T01:55:54.484Z,36.57
2022-12-11T01:58:24.859Z,34.67
2022-12-11T02:00:55.019Z,35.30
2022-12-11T02:03:24.830Z,37.90
2022-12-11T02:05:53.293Z,36.10
2022-12-11T02:08:22.496Z,39.47
2022-12-11T02:11:01.519Z,35.30
2022-12-11T02:13:36.170Z,41.00
2022-12-11T02:16:12.532Z,39.43
2022-12-11T02:18:49.819Z,39.23
2022-12-11T02:21:22.218Z,37.10
2022-12-11T02:24:15.941Z,34.23
2022-12-11T02:27:01.365Z,38.33
2022-12-11T02:29:37.197Z,33.43
2022-12-11T02:32:11.989Z,42.40
2022-12-11T02:34:44.377Z,42.13
2022-12-11T02:37:16.219Z,38.57
2022-12-11T02:39:46.511Z,38.97
2022-12-11T02:42:16.357Z,35.67
2022-12-11T02:44:48.256Z,32.83
2022-12-11T02:47:18.511Z,32.33
2022-12-11T02:49:50.621Z,30.23
2022-12-11T02:52:22.945Z,33.57
2022-12-11T02:54:53.340Z,31.27
2022-12-11T02:57:29.289Z,30.10
2022-12-11T02:59:58.980Z,28.50
2022-12-11T03:02:27.347Z,28.13
2022-12-11T03:04:57.774Z,32.57
2022-12-11T03:07:28.358Z,31.37
2022-12-11T03:09:56.541Z,27.50
2022-12-11T03:12:28.691Z,27.60
2022-12-11T03:15:00.757Z,24.77
2022-12-11T03:17:33.667Z,31.10
2022-12-11T03:20:07.232Z,30.13
2022-12-11T03:22:40.188Z,27.37
2022-12-11T03:25:12.067Z,30.87
2022-12-11T03:27:49.237Z,29.57
2022-12-11T03:30:20.959Z,32.97
2022-12-11T03:32:52.822Z,27.20
2022-12-11T03:35:27.146Z,28.37
2022-12-11T03:37:57.834Z,29.10
2022-12-11T03:40:28.917Z,28.40
2022-12-11T03:42:58.564Z,30.57
2022-12-11T03:45:30.692Z,26.60
2022-12-11T03:48:00.727Z,28.07
2022-12-11T03:50:31.691Z,28.10
2022-12-11T03:53:01.571Z,27.53
2022-12-11T03:55:31.628Z,27.10
2022-12-11T03:57:59.940Z,28.10
2022-12-11T04:00:30.077Z,30.00
2022-12-11T04:03:17.811Z,25.83
2022-12-11T04:05:48.797Z,23.30
2022-12-11T04:08:17.939Z,25.23
2022-12-11T04:10:46.214Z,23.73
2022-12-11T04:13:14.561Z,25.63
2022-12-11T04:15:43.270Z,24.70
2022-12-11T04:18:28.678Z,22.87
2022-12-11T04:21:15.284Z,22.93
2022-12-11T04:24:00.850Z,21.77
2022-12-11T04:26:29.353Z,25.83
2022-12-11T04:28:57.559Z,22.90
2022-12-11T04:31:27.100Z,22.50
2022-12-11T04:33:55.361Z,25.30
2022-12-11T04:36:23.570Z,24.83
2022-12-11T04:38:51.886Z,23.60
2022-12-11T04:41:20.342Z,25.80
2022-12-11T04:43:48.747Z,24.43
2022-12-11T04:46:19.259Z,21.70
2022-12-11T04:48:55.390Z,22.07
2022-12-11T04:51:25.618Z,20.83
2022-12-11T04:53:54.090Z,22.10
2022-12-11T04:56:22.825Z,72.00
2022-12-11T04:58:51.150Z,80.70
2022-12-11T05:01:22.634Z,56.77
2022-12-11T05:03:52.363Z,53.57
2022-12-11T05:06:20.540Z,52.90
2022-12-11T05:08:48.718Z,33.63
2022-12-11T05:11:17.488Z,30.07
2022-12-11T05:13:46.474Z,26.90
2022-12-11T05:16:16.464Z,27.00
2022-12-11T05:18:45.284Z,29.93
2022-12-11T05:21:16.370Z,24.77
2022-12-11T05:23:44.890Z,25.23
2022-12-11T05:26:17.064Z,26.87
2022-12-11T05:28:45.898Z,25.23
2022-12-11T05:31:16.471Z,24.30
2022-12-11T05:33:45.524Z,27.07
2022-12-11T05:36:18.454Z,28.17
2022-12-11T05:38:47.093Z,25.50
2022-12-11T05:41:17.862Z,25.83
2022-12-11T05:43:46.076Z,26.13
2022-12-11T05:46:15.868Z,28.30
2022-12-11T05:48:45.123Z,47.13
2022-12-11T05:51:16.604Z,82.17
2022-12-11T05:53:46.462Z,43.97
2022-12-11T05:56:16.778Z,35.50
2022-12-11T05:58:46.160Z,28.53
2022-12-11T06:01:16.733Z,28.33
2022-12-11T06:03:45.045Z,26.13
2022-12-11T06:06:15.566Z,26.47
2022-12-11T06:08:44.111Z,24.63
2022-12-11T06:11:18.392Z,27.50
2022-12-11T06:13:49.954Z,26.30
2022-12-11T06:16:18.237Z,25.87
2022-12-11T06:18:46.830Z,26.47
2022-12-11T06:21:18.785Z,28.23
2022-12-11T06:23:48.212Z,26.07
2022-12-11T06:26:17.786Z,24.33
2022-12-11T06:28:46.024Z,22.70
2022-12-11T06:31:15.681Z,22.97
2022-12-11T06:33:44.567Z,23.93
2022-12-11T06:36:15.594Z,23.30
2022-12-11T06:38:45.658Z,22.97
2022-12-11T06:41:14.544Z,22.27
2022-12-11T06:43:44.000Z,26.30
2022-12-11T06:46:14.453Z,27.23
2022-12-11T06:48:43.320Z,21.90
2022-12-11T06:51:13.456Z,24.80
2022-12-11T06:53:41.960Z,21.07
2022-12-11T06:56:14.440Z,25.47
2022-12-11T06:58:44.152Z,21.43
2022-12-11T07:01:17.983Z,22.50
2022-12-11T07:03:46.732Z,23.17
2022-12-11T07:06:15.595Z,23.20
2022-12-11T07:08:44.238Z,22.33
2022-12-11T07:11:15.628Z,25.43
2022-12-11T07:13:44.800Z,21.73
2022-12-11T07:16:14.614Z,24.20
2022-12-11T07:18:48.222Z,22.90
2022-12-11T07:21:16.584Z,24.07
2022-12-11T07:23:45.145Z,83.43
2022-12-11T07:26:17.030Z,40.83
2022-12-11T07:28:45.753Z,30.07
2022-12-11T07:31:16.146Z,26.00
2022-12-11T07:33:44.984Z,22.00
2022-12-11T07:36:15.188Z,25.53
2022-12-11T07:38:43.515Z,22.50
2022-12-11T07:41:14.912Z,23.13
2022-12-11T07:43:43.692Z,20.80
2022-12-11T07:46:13.596Z,20.57
2022-12-11T07:48:43.683Z,20.03
2022-12-11T07:51:12.978Z,21.70
2022-12-11T07:53:41.263Z,21.23
2022-12-11T07:56:10.866Z,18.73
2022-12-11T07:58:40.415Z,16.90
2022-12-11T08:01:13.587Z,22.60
2022-12-11T08:03:42.489Z,18.57
2022-12-11T08:06:11.299Z,16.70
2022-12-11T08:08:41.424Z,18.47
2022-12-11T08:11:11.597Z,18.37
2022-12-11T08:13:42.219Z,17.83
2022-12-11T08:16:13.175Z,87.13
2022-12-11T08:18:42.258Z,30.07
2022-12-11T08:21:12.409Z,20.20
2022-12-11T08:23:40.948Z,20.47
2022-12-11T08:26:12.051Z,18.63
2022-12-11T08:28:42.382Z,17.00
2022-12-11T08:31:13.728Z,15.30
2022-12-11T08:33:43.155Z,13.27
2022-12-11T08:36:16.402Z,12.50
2022-12-11T08:38:45.053Z,15.47
2022-12-11T08:41:15.236Z,13.67
2022-12-11T08:43:46.018Z,14.43
2022-12-11T08:46:15.114Z,12.63
2022-12-11T08:48:44.621Z,14.07
2022-12-11T08:51:15.363Z,14.03
2022-12-11T08:53:44.603Z,13.50
2022-12-11T08:56:16.212Z,13.27
2022-12-11T08:58:46.761Z,14.77
2022-12-11T09:01:18.030Z,15.30
2022-12-11T09:03:46.695Z,15.00
2022-12-11T09:06:17.424Z,13.57
2022-12-11T09:08:52.228Z,14.87
2022-12-11T09:11:24.289Z,13.13
2022-12-11T09:13:54.653Z,13.50
2022-12-11T09:16:25.939Z,13.70
2022-12-11T09:18:55.990Z,60.33
2022-12-11T09:21:26.698Z,49.87
2022-12-11T09:23:56.110Z,29.50
2022-12-11T09:26:25.171Z,20.47
2022-12-11T09:28:55.062Z,15.47
2022-12-11T09:31:25.153Z,17.23
2022-12-11T09:33:56.478Z,12.80
2022-12-11T09:36:25.208Z,13.23
2022-12-11T09:38:53.695Z,13.60
2022-12-11T09:41:36.145Z,14.17
2022-12-11T09:44:21.710Z,16.93
2022-12-11T09:46:51.787Z,13.00
2022-12-11T09:49:29.949Z,13.03
2022-12-11T09:52:07.148Z,11.10
2022-12-11T09:54:36.105Z,14.83
2022-12-11T09:57:14.863Z,12.70
2022-12-11T10:00:04.233Z,13.03
2022-12-11T10:02:46.907Z,62.37
2022-12-11T10:05:22.519Z,39.60
2022-12-11T10:07:55.545Z,22.60
2022-12-11T10:10:37.626Z,16.20
2022-12-11T10:13:14.705Z,13.17
2022-12-11T10:15:52.912Z,12.20
2022-12-11T10:18:24.410Z,12.23
2022-12-11T10:20:54.715Z,13.83
2022-12-11T10:23:28.646Z,15.30
2022-12-11T10:26:04.016Z,15.30
2022-12-11T10:28:32.544Z,16.47
2022-12-11T10:31:08.699Z,13.47
2022-12-11T10:33:48.786Z,33.80
2022-12-11T10:36:24.833Z,20.40
2022-12-11T10:38:53.856Z,16.97
2022-12-11T10:41:25.808Z,11.90
2022-12-11T10:43:55.765Z,11.23
2022-12-11T10:46:29.258Z,11.90
2022-12-11T10:48:59.514Z,11.17
2022-12-11T10:51:37.005Z,12.70
2022-12-11T10:54:10.647Z,11.43
2022-12-11T10:56:39.650Z,11.57
2022-12-11T10:59:17.660Z,14.10
2022-12-11T11:01:51.505Z,11.43
2022-12-11T11:04:26.210Z,10.97
2022-12-11T11:07:05.623Z,23.80
2022-12-11T11:09:37.672Z,16.20
2022-12-11T11:12:22.080Z,13.40
2022-12-11T11:15:02.486Z,13.37
2022-12-11T11:17:36.250Z,31.17
2022-12-11T11:20:15.221Z,42.13
2022-12-11T11:22:48.047Z,22.20
2022-12-11T11:25:21.724Z,15.00
2022-12-11T11:27:53.413Z,15.90
2022-12-11T11:30:24.642Z,14.83
2022-12-11T11:32:56.774Z,13.23
2022-12-11T11:35:27.327Z,14.53
2022-12-11T11:38:02.302Z,15.73
2022-12-11T11:40:32.605Z,15.77
2022-12-11T11:43:14.005Z,15.20
2022-12-11T11:45:49.208Z,16.97
2022-12-11T11:48:35.593Z,16.87
2022-12-11T11:51:19.043Z,12.93
2022-12-11T11:53:52.709Z,16.53
2022-12-11T11:56:37.082Z,12.93
2022-12-11T11:59:14.142Z,14.30
2022-12-11T12:01:43.175Z,14.73
2022-12-11T12:04:13.610Z,13.57
2022-12-11T12:07:08.073Z,14.30
2022-12-11T12:09:48.236Z,15.07
2022-12-11T12:12:28.570Z,18.40
2022-12-11T12:15:20.375Z,53.83
2022-12-11T12:17:55.963Z,25.43
2022-12-11T12:20:38.551Z,18.03
2022-12-11T12:23:24.229Z,16.00
2022-12-11T12:25:59.043Z,15.13
2022-12-11T12:28:36.942Z,14.77
2022-12-11T12:31:25.134Z,16.80
2022-12-11T12:34:04.251Z,14.83
2022-12-11T12:36:40.508Z,14.80
2022-12-11T12:39:21.086Z,14.37
2022-12-11T12:42:03.971Z,16.47
2022-12-11T12:44:41.069Z,15.10
2022-12-11T12:47:12.586Z,12.53
2022-12-11T12:49:42.969Z,15.07
2022-12-11T12:52:19.053Z,17.73
2022-12-11T12:55:03.686Z,15.53
2022-12-11T12:57:33.053Z,15.93
2022-12-11T13:00:01.498Z,16.07
2022-12-11T13:02:31.328Z,16.43
2022-12-11T13:05:01.848Z,14.30
2022-12-11T13:07:33.147Z,13.20
2022-12-11T13:10:08.247Z,13.90
2022-12-11T13:12:44.014Z,14.70
2022-12-11T13:15:36.190Z,14.43
2022-12-11T13:18:08.500Z,16.23
2022-12-11T13:20:51.035Z,16.30
2022-12-11T13:23:29.496Z,18.57
2022-12-11T13:25:59.548Z,24.10
2022-12-11T13:28:33.849Z,19.43
2022-12-11T13:31:40.774Z,17.07
2022-12-11T13:34:17.228Z,15.90
2022-12-11T13:36:50.973Z,19.50
2022-12-11T13:39:23.745Z,22.57
2022-12-11T13:41:55.890Z,22.33
2022-12-11T13:44:27.698Z,18.17
2022-12-11T13:46:58.993Z,17.00
2022-12-11T13:49:31.211Z,17.70
2022-12-11T13:52:01.255Z,15.60
2022-12-11T13:54:33.931Z,16.93
2022-12-11T13:57:05.043Z,14.10
2022-12-11T13:59:35.516Z,14.33
2022-12-11T14:02:16.476Z,15.00
2022-12-11T14:04:45.160Z,15.13
2022-12-11T14:07:13.700Z,15.83
2022-12-11T14:09:45.305Z,15.97
2022-12-11T14:12:22.833Z,15.13
2022-12-11T14:14:54.682Z,18.73
2022-12-11T14:17:26.500Z,16.17
2022-12-11T14:19:56.051Z,18.07
2022-12-11T14:22:26.133Z,17.27
2022-12-11T14:24:58.248Z,19.63
2022-12-11T14:27:27.797Z,14.77
2022-12-11T14:29:56.608Z,14.70
2022-12-11T14:32:33.245Z,15.70
2022-12-11T14:35:04.866Z,17.40
2022-12-11T14:37:34.747Z,48.03
2022-12-11T14:40:08.210Z,33.83
2022-12-11T14:42:41.332Z,20.80
2022-12-11T14:45:19.973Z,16.13
2022-12-11T14:47:48.506Z,15.77
2022-12-11T14:50:22.403Z,26.00
2022-12-11T14:52:54.323Z,28.97
2022-12-11T14:55:27.178Z,72.17
2022-12-11T14:57:58.907Z,29.50
2022-12-11T15:00:32.860Z,19.73
2022-12-11T15:03:03.723Z,11.87
2022-12-11T15:05:38.858Z,9.53
2022-12-11T15:08:24.820Z,11.10
2022-12-11T15:11:08.143Z,12.40
2022-12-11T15:13:39.539Z,10.20
2022-12-11T15:16:10.231Z,10.70
2022-12-11T15:18:42.411Z,9.63
2022-12-11T15:21:13.330Z,9.77
2022-12-11T15:23:51.745Z,9.90
2022-12-11T15:26:22.517Z,10.00
2022-12-11T15:29:01.223Z,9.30
2022-12-11T15:31:31.236Z,10.17
2022-12-11T15:33:59.832Z,10.00
2022-12-11T15:36:33.232Z,8.70
2022-12-11T15:39:01.809Z,9.97
2022-12-11T15:41:33.332Z,9.00
2022-12-11T15:44:04.847Z,10.00
2022-12-11T15:46:37.080Z,10.33
2022-12-11T15:49:13.672Z,9.83
2022-12-11T15:51:43.412Z,10.77
2022-12-11T15:54:12.099Z,11.07
2022-12-11T15:56:42.003Z,11.43
2022-12-11T15:59:11.972Z,11.13
2022-12-11T16:01:40.336Z,10.33
2022-12-11T16:04:08.623Z,10.03
2022-12-11T16:06:37.506Z,10.77
2022-12-11T16:09:05.831Z,10.60
2022-12-11T16:11:34.144Z,9.10
2022-12-11T16:14:04.561Z,9.17
2022-12-11T16:16:35.502Z,9.33
2022-12-11T16:19:03.965Z,9.17
2022-12-11T16:21:32.196Z,9.03
2022-12-11T16:24:00.508Z,10.10
2022-12-11T16:26:28.805Z,9.87
2022-12-11T16:28:56.983Z,9.10
2022-12-11T16:31:26.635Z,10.00
2022-12-11T16:33:54.873Z,8.90
2022-12-11T16:36:23.551Z,9.43
2022-12-11T16:38:54.263Z,9.23
2022-12-11T16:41:23.742Z,9.13
2022-12-11T16:43:52.538Z,8.90
2022-12-11T16:46:22.048Z,9.07
2022-12-11T16:48:51.907Z,9.63
2022-12-11T16:51:20.503Z,10.17
2022-12-11T16:53:49.008Z,12.13
2022-12-11T16:56:17.641Z,9.50
2022-12-11T16:58:47.681Z,10.40
2022-12-11T17:01:16.690Z,10.00
2022-12-11T17:03:45.387Z,8.60
2022-12-11T17:06:18.252Z,9.63
2022-12-11T17:08:47.274Z,26.43
2022-12-11T17:11:17.455Z,19.13
2022-12-11T17:13:46.112Z,13.70
2022-12-11T17:16:16.894Z,11.17
2022-12-11T17:18:45.478Z,8.83
2022-12-11T17:21:17.128Z,11.20
2022-12-11T17:23:45.981Z,11.50
2022-12-11T17:26:14.747Z,12.40
2022-12-11T17:28:43.346Z,12.97
2022-12-11T17:31:14.809Z,12.83
2022-12-11T17:33:44.179Z,11.23
2022-12-11T17:36:17.429Z,10.73
2022-12-11T17:38:46.001Z,10.63
2022-12-11T17:41:20.376Z,12.57
2022-12-11T17:43:49.877Z,11.60
2022-12-11T17:46:18.893Z,10.23
2022-12-11T17:48:47.292Z,11.60
2022-12-11T17:51:22.037Z,10.73
2022-12-11T17:53:50.587Z,11.07
2022-12-11T17:56:19.322Z,9.97
2022-12-11T17:58:47.710Z,9.70
2022-12-11T18:01:16.136Z,11.00
2022-12-11T18:03:44.439Z,10.97
2022-12-11T18:06:15.066Z,10.70
2022-12-11T18:08:46.271Z,10.43
2022-12-11T18:11:17.110Z,10.33
2022-12-11T18:13:46.579Z,10.60
2022-12-11T18:16:17.984Z,11.10
2022-12-11T18:18:47.169Z,11.67
2022-12-11T18:21:17.000Z,11.00
2022-12-11T18:23:47.126Z,11.80
2022-12-11T18:26:15.832Z,11.73
2022-12-11T18:28:44.921Z,11.17
2022-12-11T18:31:14.557Z,11.90
2022-12-11T18:33:44.765Z,12.27
2022-12-11T18:36:15.105Z,12.03
2022-12-11T18:38:45.449Z,12.50
2022-12-11T18:41:16.147Z,12.87
2022-12-11T18:43:44.484Z,13.37
2022-12-11T18:46:15.107Z,14.77
2022-12-11T18:48:44.426Z,18.13
2022-12-11T18:51:15.457Z,15.97
2022-12-11T18:53:43.743Z,13.50
2022-12-11T18:56:15.475Z,15.40
2022-12-11T18:58:44.543Z,13.73
2022-12-11T19:01:17.214Z,11.60
2022-12-11T19:03:45.529Z,11.30
2022-12-11T19:06:16.015Z,11.77
2022-12-11T19:08:44.821Z,12.30
2022-12-11T19:11:17.655Z,13.00
2022-12-11T19:13:46.637Z,13.17
2022-12-11T19:16:19.699Z,12.37
2022-12-11T19:18:48.327Z,13.70
2022-12-11T19:21:19.408Z,12.07
2022-12-11T19:23:48.423Z,12.10
2022-12-11T19:26:22.755Z,12.97
2022-12-11T19:28:52.736Z,12.40
2022-12-11T19:31:24.087Z,12.47
2022-12-11T19:33:52.724Z,13.40
2022-12-11T19:36:23.801Z,13.90
2022-12-11T19:38:55.321Z,13.27
2022-12-11T19:41:28.676Z,13.70
2022-12-11T19:43:58.586Z,15.00
2022-12-11T19:46:28.036Z,15.73
2022-12-11T19:48:58.096Z,14.83
2022-12-11T19:51:29.698Z,15.60
2022-12-11T19:53:59.822Z,15.13
2022-12-11T19:56:29.789Z,14.90
2022-12-11T19:58:58.866Z,13.87
2022-12-11T20:01:31.143Z,16.60
2022-12-11T20:04:01.218Z,14.17
2022-12-11T20:06:30.738Z,17.30
2022-12-11T20:08:59.577Z,14.60
2022-12-11T20:11:29.441Z,12.57
2022-12-11T20:13:57.919Z,13.23
2022-12-11T20:16:53.335Z,13.47
2022-12-11T20:19:15.311Z,14.50
2022-12-11T20:21:44.012Z,12.63
2022-12-11T20:24:12.354Z,14.57
2022-12-11T20:26:42.080Z,11.80
2022-12-11T20:29:10.530Z,12.87
2022-12-11T20:31:39.312Z,14.27
2022-12-11T20:34:09.409Z,13.33
2022-12-11T20:36:38.010Z,14.27
2022-12-11T20:39:06.539Z,14.10
2022-12-11T20:41:34.937Z,15.37
2022-12-11T20:44:04.614Z,13.17
2022-12-11T20:46:33.019Z,14.53
2022-12-11T20:49:01.814Z,18.43
2022-12-11T20:51:32.339Z,15.70
2022-12-11T20:54:01.345Z,14.27
2022-12-11T20:56:32.191Z,15.77
2022-12-11T20:59:01.916Z,15.47
2022-12-11T21:01:33.551Z,15.20
2022-12-11T21:04:02.481Z,16.87
2022-12-11T21:06:33.929Z,14.17
2022-12-11T21:09:04.976Z,15.30
2022-12-11T21:11:33.501Z,16.40
2022-12-11T21:14:01.875Z,14.10
2022-12-11T21:16:33.011Z,18.43
2022-12-11T21:19:02.806Z,13.70
2022-12-11T21:21:33.271Z,18.27
2022-12-11T21:24:01.627Z,16.90
2022-12-11T21:26:31.385Z,15.13
2022-12-11T21:28:59.833Z,15.27
2022-12-11T21:31:29.120Z,15.10
2022-12-11T21:33:59.031Z,15.77
2022-12-11T21:36:27.440Z,17.53
2022-12-11T21:38:55.974Z,14.90
2022-12-11T21:41:26.212Z,14.67
2022-12-11T21:45:21.243Z,14.97
2022-12-11T21:46:44.950Z,15.03
2022-12-11T21:49:14.785Z,15.53
2022-12-11T21:51:47.090Z,14.93
2022-12-11T21:54:17.779Z,16.07
2022-12-11T21:56:47.077Z,17.17
2022-12-11T21:59:15.916Z,15.27
2022-12-11T22:01:47.106Z,15.93
2022-12-11T22:04:17.030Z,16.63
2022-12-11T22:06:47.291Z,17.27
2022-12-11T22:09:16.341Z,16.43
2022-12-11T22:11:46.430Z,17.27
2022-12-11T22:14:16.175Z,16.40
2022-12-11T22:16:45.260Z,18.23
2022-12-11T22:19:13.847Z,17.93
2022-12-11T22:21:43.805Z,16.70
2022-12-11T22:24:12.155Z,17.23
2022-12-11T22:26:40.812Z,16.83
2022-12-11T22:29:09.313Z,16.70
2022-12-11T22:31:37.566Z,16.53
2022-12-11T22:34:05.867Z,17.23
2022-12-11T22:36:34.069Z,17.20
2022-12-11T22:39:03.860Z,16.20
2022-12-11T22:41:33.601Z,17.97
2022-12-11T22:44:02.284Z,15.70
2022-12-11T22:46:31.940Z,14.67
2022-12-11T22:49:00.690Z,16.23
2022-12-11T22:51:28.901Z,16.70
2022-12-11T22:53:58.535Z,17.73
2022-12-11T22:56:28.415Z,18.37
2022-12-11T22:58:57.995Z,20.83
2022-12-11T23:01:27.590Z,17.07
2022-12-11T23:03:55.902Z,17.03
2022-12-11T23:06:25.936Z,18.33
2022-12-11T23:08:55.273Z,18.40
2022-12-11T23:11:25.965Z,18.33
2022-12-11T23:13:56.209Z,19.00
2022-12-11T23:16:25.934Z,19.17
2022-12-11T23:18:54.719Z,19.10
2022-12-11T23:21:23.712Z,21.87
2022-12-11T23:23:52.316Z,17.80
2022-12-11T23:26:21.397Z,19.33
2022-12-11T23:28:50.301Z,19.20
2022-12-11T23:31:20.431Z,23.40
2022-12-11T23:33:48.853Z,18.53
2022-12-11T23:36:17.338Z,24.10
2022-12-11T23:38:50.944Z,18.53
2022-12-11T23:41:22.699Z,17.13
2022-12-11T23:43:51.115Z,17.03
2022-12-11T23:46:23.099Z,19.60
2022-12-11T23:48:52.298Z,16.30
2022-12-11T23:51:22.362Z,21.70
2022-12-11T23:53:50.890Z,17.90
2022-12-11T23:56:22.395Z,20.67
2022-12-11T23:58:51.413Z,16.23
